createdAt,value
2018-03-24T00:01:33.021Z,40.60
2018-03-24T00:03:59.906Z,36.80
2018-03-24T00:06:26.070Z,41.10
2018-03-24T00:08:52.287Z,41.60
2018-03-24T00:11:18.478Z,38.27
2018-03-24T00:13:44.668Z,39.00
2018-03-24T00:16:10.815Z,39.13
2018-03-24T00:18:36.993Z,35.13
2018-03-24T00:21:03.218Z,34.13
2018-03-24T00:23:29.417Z,36.23
2018-03-24T00:25:55.583Z,39.50
2018-03-24T00:28:21.787Z,35.77
2018-03-24T00:30:48.707Z,41.43
2018-03-24T00:33:14.903Z,43.33
2018-03-24T00:35:41.059Z,43.47
2018-03-24T00:38:07.217Z,43.33
2018-03-24T00:40:33.405Z,41.93
2018-03-24T00:42:59.582Z,43.40
2018-03-24T00:45:25.779Z,43.97
2018-03-24T00:47:52.657Z,39.93
2018-03-24T00:50:18.831Z,36.80
2018-03-24T00:52:45.008Z,37.13
2018-03-24T00:55:11.895Z,44.23
2018-03-24T00:57:38.026Z,40.63
2018-03-24T01:00:04.173Z,47.87
2018-03-24T01:02:30.326Z,43.53
2018-03-24T01:04:56.454Z,48.43
2018-03-24T01:07:22.623Z,46.17
2018-03-24T01:09:48.769Z,42.63
2018-03-24T01:12:14.909Z,42.10
2018-03-24T01:14:41.062Z,37.20
2018-03-24T01:17:07.271Z,38.80
2018-03-24T01:19:33.439Z,40.83
2018-03-24T01:22:00.362Z,42.67
2018-03-24T01:24:26.506Z,42.60
2018-03-24T01:26:52.631Z,44.63
2018-03-24T01:29:18.767Z,43.77
2018-03-24T01:31:44.967Z,41.07
2018-03-24T01:34:11.852Z,40.17
2018-03-24T01:36:37.958Z,48.97
2018-03-24T01:39:04.874Z,44.80
2018-03-24T01:41:31.023Z,42.13
2018-03-24T01:43:57.157Z,51.10
2018-03-24T01:46:23.315Z,47.57
2018-03-24T01:48:49.514Z,51.63
2018-03-24T01:51:15.679Z,48.37
2018-03-24T01:53:52.079Z,45.10
2018-03-24T01:56:18.243Z,47.33
2018-03-24T01:58:45.180Z,44.40
2018-03-24T02:01:11.382Z,52.93
2018-03-24T02:03:37.518Z,48.10
2018-03-24T02:06:03.629Z,54.33
2018-03-24T02:08:29.857Z,43.10
2018-03-24T02:10:56.765Z,46.87
2018-03-24T02:13:22.948Z,55.87
2018-03-24T02:15:49.832Z,54.50
2018-03-24T02:18:16.008Z,57.13
2018-03-24T02:20:42.225Z,54.20
2018-03-24T02:23:08.397Z,55.37
2018-03-24T02:25:34.623Z,58.33
2018-03-24T02:28:00.797Z,51.90
2018-03-24T02:30:27.699Z,54.37
2018-03-24T02:32:53.895Z,62.80
2018-03-24T02:35:20.876Z,61.70
2018-03-24T02:37:47.026Z,56.77
2018-03-24T02:40:13.197Z,61.07
2018-03-24T02:42:39.430Z,63.20
2018-03-24T02:45:05.585Z,66.67
2018-03-24T02:47:31.767Z,70.17
2018-03-24T02:49:57.946Z,64.27
2018-03-24T02:52:24.135Z,64.73
2018-03-24T02:54:51.066Z,56.90
2018-03-24T02:57:17.284Z,64.77
2018-03-24T02:59:43.435Z,63.87
2018-03-24T03:02:09.636Z,65.83
2018-03-24T03:04:35.813Z,62.07
2018-03-24T03:07:01.968Z,70.07
2018-03-24T03:09:28.098Z,72.37
2018-03-24T03:11:54.604Z,71.67
2018-03-24T03:14:20.789Z,66.00
2018-03-24T03:16:46.923Z,63.83
2018-03-24T03:19:13.079Z,65.67
2018-03-24T03:21:50.525Z,77.37
2018-03-24T03:24:16.701Z,74.50
2018-03-24T03:26:42.862Z,75.20
2018-03-24T03:29:09.034Z,63.30
2018-03-24T03:31:35.218Z,57.60
2018-03-24T03:34:01.386Z,69.13
2018-03-24T03:36:28.278Z,63.60
2018-03-24T03:38:54.411Z,66.33
2018-03-24T03:41:20.561Z,68.57
2018-03-24T03:43:46.722Z,62.07
2018-03-24T03:46:12.897Z,66.60
2018-03-24T03:48:39.045Z,71.03
2018-03-24T03:51:05.979Z,90.77
2018-03-24T03:53:32.164Z,84.90
2018-03-24T03:55:58.324Z,69.53
2018-03-24T03:58:24.464Z,67.20
2018-03-24T04:00:50.690Z,57.00
2018-03-24T04:03:16.817Z,56.73
2018-03-24T04:05:42.986Z,62.73
2018-03-24T04:08:09.150Z,57.43
2018-03-24T04:10:35.319Z,82.90
2018-03-24T04:13:02.207Z,78.83
2018-03-24T04:15:28.369Z,73.77
2018-03-24T04:17:54.562Z,66.33
2018-03-24T04:20:20.707Z,60.70
2018-03-24T04:22:46.899Z,60.63
2018-03-24T04:25:13.045Z,63.27
2018-03-24T04:27:39.168Z,58.57
2018-03-24T04:30:05.341Z,70.00
2018-03-24T04:32:32.263Z,60.13
2018-03-24T04:34:58.406Z,66.80
2018-03-24T04:37:24.663Z,66.53
2018-03-24T04:39:51.565Z,66.63
2018-03-24T04:42:17.739Z,67.93
2018-03-24T04:44:43.882Z,63.87
2018-03-24T04:47:10.026Z,51.90
2018-03-24T04:49:36.186Z,51.27
2018-03-24T04:52:03.046Z,50.70
2018-03-24T04:54:29.954Z,54.90
2018-03-24T04:56:56.075Z,60.40
2018-03-24T04:59:22.290Z,48.60
2018-03-24T05:01:49.206Z,56.20
2018-03-24T05:04:15.410Z,56.57
2018-03-24T05:06:41.587Z,57.97
2018-03-24T05:09:07.790Z,59.10
2018-03-24T05:11:33.998Z,61.80
2018-03-24T05:14:00.909Z,68.00
2018-03-24T05:16:27.091Z,71.20
2018-03-24T05:18:54.023Z,59.37
2018-03-24T05:21:20.198Z,58.80
2018-03-24T05:23:47.118Z,64.33
2018-03-24T05:26:13.345Z,67.70
2018-03-24T05:28:39.512Z,54.30
2018-03-24T05:31:05.700Z,63.97
2018-03-24T05:33:31.903Z,53.83
2018-03-24T05:35:58.826Z,57.20
2018-03-24T05:38:25.067Z,55.00
2018-03-24T05:40:51.280Z,53.50
2018-03-24T05:43:17.457Z,57.33
2018-03-24T05:45:43.653Z,56.73
2018-03-24T05:48:09.850Z,59.37
2018-03-24T05:50:36.069Z,65.70
2018-03-24T05:53:03.013Z,58.40
2018-03-24T05:55:29.192Z,50.00
2018-03-24T05:57:56.122Z,54.83
2018-03-24T06:00:22.305Z,55.27
2018-03-24T06:02:49.224Z,64.50
2018-03-24T06:05:15.413Z,54.00
2018-03-24T06:07:42.274Z,51.43
2018-03-24T06:10:08.431Z,55.40
2018-03-24T06:12:34.579Z,65.67
2018-03-24T06:15:00.767Z,64.20
2018-03-24T06:17:27.666Z,73.90
2018-03-24T06:19:53.791Z,78.17
2018-03-24T06:22:19.930Z,103.07
2018-03-24T06:24:46.083Z,111.37
2018-03-24T06:27:12.198Z,122.03
2018-03-24T06:29:39.117Z,119.30
2018-03-24T06:32:06.775Z,118.67
2018-03-24T06:34:32.971Z,124.20
2018-03-24T06:36:59.938Z,102.77
2018-03-24T06:39:26.101Z,118.03
2018-03-24T06:41:52.258Z,114.23
2018-03-24T06:44:18.399Z,83.37
2018-03-24T06:46:44.549Z,86.67
2018-03-24T06:49:10.705Z,87.17
2018-03-24T06:51:37.591Z,91.87
2018-03-24T06:54:03.746Z,80.73
2018-03-24T06:56:29.905Z,84.13
2018-03-24T06:58:56.067Z,89.27
2018-03-24T07:01:22.215Z,89.47
2018-03-24T07:03:49.154Z,83.50
2018-03-24T07:06:15.283Z,83.80
2018-03-24T07:08:41.414Z,85.87
2018-03-24T07:11:07.609Z,69.77
2018-03-24T07:13:33.767Z,68.30
2018-03-24T07:15:59.957Z,66.20
2018-03-24T07:18:26.150Z,60.53
2018-03-24T07:20:52.296Z,60.27
2018-03-24T07:23:18.453Z,60.57
2018-03-24T07:25:44.641Z,58.93
2018-03-24T07:28:10.813Z,52.00
2018-03-24T07:30:37.009Z,47.13
2018-03-24T07:33:03.933Z,52.57
2018-03-24T07:35:30.150Z,46.97
2018-03-24T07:37:56.338Z,48.03
2018-03-24T07:40:22.506Z,45.97
2018-03-24T07:42:48.713Z,46.27
2018-03-24T07:45:14.863Z,39.87
2018-03-24T07:47:41.786Z,41.30
2018-03-24T07:50:07.930Z,40.27
2018-03-24T07:52:34.117Z,40.13
2018-03-24T07:55:00.280Z,38.70
2018-03-24T07:57:26.449Z,37.10
2018-03-24T07:59:52.659Z,39.87
2018-03-24T08:02:18.864Z,42.07
2018-03-24T08:04:45.767Z,38.33
2018-03-24T08:07:11.927Z,34.97
2018-03-24T08:09:38.141Z,36.17
2018-03-24T08:12:04.276Z,38.73
2018-03-24T08:14:30.470Z,40.17
2018-03-24T08:16:57.378Z,39.67
2018-03-24T08:19:23.566Z,43.63
2018-03-24T08:21:50.454Z,40.47
2018-03-24T08:24:16.643Z,41.13
2018-03-24T08:26:42.803Z,40.47
2018-03-24T08:29:09.741Z,40.00
2018-03-24T08:31:35.931Z,37.97
2018-03-24T08:34:02.112Z,39.57
2018-03-24T08:36:28.299Z,38.73
2018-03-24T08:38:54.499Z,34.67
2018-03-24T08:41:20.739Z,37.33
2018-03-24T08:43:48.367Z,39.63
2018-03-24T08:46:14.543Z,35.70
2018-03-24T08:48:40.757Z,34.77
2018-03-24T08:51:06.951Z,34.27
2018-03-24T08:53:33.891Z,34.17
2018-03-24T08:56:00.811Z,34.87
2018-03-24T08:58:27.014Z,33.57
2018-03-24T09:00:53.967Z,36.20
2018-03-24T09:03:20.869Z,32.40
2018-03-24T09:05:48.033Z,35.73
2018-03-24T09:08:17.657Z,35.20
2018-03-24T09:10:50.233Z,34.03
2018-03-24T09:13:16.370Z,32.80
2018-03-24T09:15:42.503Z,33.33
2018-03-24T09:18:08.661Z,32.70
2018-03-24T09:20:34.853Z,31.97
2018-03-24T09:23:02.123Z,35.47
2018-03-24T09:25:29.042Z,32.53
2018-03-24T09:27:55.230Z,31.73
2018-03-24T09:30:22.126Z,33.10
2018-03-24T09:32:48.304Z,31.03
2018-03-24T09:35:15.184Z,32.57
2018-03-24T09:37:41.363Z,35.23
2018-03-24T09:40:07.539Z,35.07
2018-03-24T09:42:33.734Z,29.97
2018-03-24T09:44:59.917Z,34.00
2018-03-24T09:47:26.130Z,34.97
2018-03-24T09:49:52.228Z,34.23
2018-03-24T09:52:18.375Z,32.87
2018-03-24T09:54:44.537Z,34.23
2018-03-24T09:57:10.682Z,34.83
2018-03-24T09:59:36.895Z,32.70
2018-03-24T10:02:03.087Z,30.67
2018-03-24T10:04:29.278Z,31.97
2018-03-24T10:06:55.462Z,33.33
2018-03-24T10:09:21.637Z,31.67
2018-03-24T10:11:47.813Z,30.27
2018-03-24T10:14:14.053Z,28.97
2018-03-24T10:16:40.218Z,28.73
2018-03-24T10:19:06.411Z,29.43
2018-03-24T10:25:06.917Z,26.97
2018-03-24T10:27:32.982Z,30.33
2018-03-24T10:29:59.056Z,27.23
2018-03-24T10:32:25.120Z,25.67
2018-03-24T10:34:57.250Z,20.43
2018-03-24T10:37:23.316Z,20.20
2018-03-24T10:39:49.379Z,17.30
2018-03-24T10:42:15.432Z,17.77
2018-03-24T10:44:41.479Z,23.47
2018-03-24T10:47:07.549Z,23.30
2018-03-24T10:49:34.340Z,23.23
2018-03-24T10:52:00.412Z,23.10
2018-03-24T10:54:26.469Z,23.13
2018-03-24T10:56:53.282Z,24.87
2018-03-24T10:59:19.332Z,23.60
2018-03-24T11:01:45.393Z,24.60
2018-03-24T11:04:12.219Z,27.77
2018-03-24T11:06:38.232Z,26.97
2018-03-24T11:09:04.274Z,28.07
2018-03-24T11:11:30.352Z,29.23
2018-03-24T11:13:57.165Z,25.67
2018-03-24T11:16:23.196Z,26.23
2018-03-24T11:18:49.249Z,29.50
2018-03-24T11:21:15.289Z,28.13
2018-03-24T11:23:41.345Z,25.07
2018-03-24T11:26:07.380Z,27.00
2018-03-24T11:28:33.442Z,25.27
2018-03-24T11:31:00.229Z,26.33
2018-03-24T11:33:26.289Z,27.90
2018-03-24T11:35:52.332Z,31.87
2018-03-24T11:38:18.397Z,28.23
2018-03-24T11:40:45.176Z,26.27
2018-03-24T11:43:11.254Z,26.07
2018-03-24T11:45:37.305Z,26.77
2018-03-24T11:48:03.355Z,24.00
2018-03-24T11:50:30.144Z,25.83
2018-03-24T11:52:56.193Z,27.20
2018-03-24T11:55:22.251Z,25.50
2018-03-24T11:57:48.292Z,25.77
2018-03-24T12:00:14.349Z,26.33
2018-03-24T12:02:40.398Z,26.83
2018-03-24T12:05:07.217Z,25.00
2018-03-24T12:07:33.256Z,25.07
2018-03-24T12:09:59.295Z,22.57
2018-03-24T12:12:25.366Z,23.67
2018-03-24T12:14:51.420Z,20.77
2018-03-24T12:17:17.472Z,24.43
2018-03-24T12:19:43.547Z,22.97
2018-03-24T12:22:09.590Z,25.10
2018-03-24T12:24:35.646Z,23.03
2018-03-24T12:27:02.499Z,21.23
2018-03-24T12:29:28.507Z,21.07
2018-03-24T12:31:54.578Z,21.60
2018-03-24T12:34:20.638Z,22.53
2018-03-24T12:36:46.715Z,21.93
2018-03-24T12:39:12.765Z,22.40
2018-03-24T12:41:38.830Z,21.83
2018-03-24T12:44:05.622Z,21.73
2018-03-24T12:46:31.695Z,23.13
2018-03-24T12:48:57.734Z,22.77
2018-03-24T12:51:23.784Z,23.77
2018-03-24T12:53:50.572Z,24.13
2018-03-24T12:56:16.608Z,23.07
2018-03-24T12:58:42.680Z,25.30
2018-03-24T13:01:08.729Z,23.20
2018-03-24T13:03:34.800Z,24.93
2018-03-24T13:06:00.847Z,23.67
2018-03-24T13:08:26.910Z,23.83
2018-03-24T13:10:52.969Z,23.07
2018-03-24T13:13:19.026Z,23.23
2018-03-24T13:15:45.067Z,23.37
2018-03-24T13:18:11.849Z,23.20
2018-03-24T13:20:37.909Z,21.97
2018-03-24T13:23:03.949Z,21.87
2018-03-24T13:25:30.006Z,22.37
2018-03-24T13:27:56.058Z,23.17
2018-03-24T13:30:22.106Z,23.10
2018-03-24T13:32:48.894Z,22.90
2018-03-24T13:35:14.954Z,24.50
2018-03-24T13:37:41.005Z,23.17
2018-03-24T13:40:07.062Z,24.93
2018-03-24T13:42:33.854Z,21.57
2018-03-24T13:45:17.717Z,23.80
2018-03-24T13:47:43.830Z,24.53
2018-03-24T13:50:09.872Z,22.80
2018-03-24T13:52:35.926Z,26.27
2018-03-24T13:55:01.969Z,22.77
2018-03-24T13:57:28.017Z,24.03
2018-03-24T13:59:54.069Z,26.13
2018-03-24T14:02:20.134Z,24.77
2018-03-24T14:04:59.390Z,26.67
2018-03-24T14:07:26.191Z,25.73
2018-03-24T14:09:52.234Z,26.17
2018-03-24T14:12:18.294Z,26.97
2018-03-24T14:14:45.824Z,27.03
2018-03-24T14:17:11.876Z,25.60
2018-03-24T14:19:37.964Z,26.97
2018-03-24T14:22:04.001Z,24.90
2018-03-24T14:24:30.793Z,24.70
2018-03-24T14:26:56.866Z,26.07
2018-03-24T14:29:23.640Z,26.87
2018-03-24T14:31:50.439Z,28.30
2018-03-24T14:34:16.488Z,25.57
2018-03-24T14:36:42.524Z,26.33
2018-03-24T14:39:08.573Z,26.63
2018-03-24T14:41:34.616Z,29.53
2018-03-24T14:44:02.158Z,29.70
2018-03-24T14:46:28.196Z,31.40
2018-03-24T14:48:54.232Z,31.50
2018-03-24T14:51:20.269Z,30.43
2018-03-24T14:53:46.320Z,28.80
2018-03-24T14:56:12.371Z,30.60
2018-03-24T14:58:38.438Z,29.43
2018-03-24T15:01:05.225Z,31.70
2018-03-24T15:07:02.825Z,31.17
2018-03-24T15:09:28.877Z,31.47
2018-03-24T15:11:54.917Z,26.50
2018-03-24T15:14:20.974Z,26.53
2018-03-24T15:16:47.030Z,25.83
2018-03-24T15:19:13.831Z,28.33
2018-03-24T15:21:39.877Z,25.57
2018-03-24T15:24:06.049Z,27.67
2018-03-24T15:26:32.096Z,30.30
2018-03-24T15:29:16.953Z,28.23
2018-03-24T15:32:01.944Z,28.43
2018-03-24T15:34:46.788Z,27.90
2018-03-24T15:37:12.821Z,25.70
2018-03-24T15:39:38.877Z,22.73
2018-03-24T15:42:05.008Z,27.83
2018-03-24T15:44:31.059Z,26.63
2018-03-24T15:46:57.100Z,26.23
2018-03-24T15:49:23.168Z,27.97
2018-03-24T15:51:49.966Z,26.77
2018-03-24T15:54:16.000Z,26.00
2018-03-24T15:56:42.054Z,28.37
2018-03-24T15:59:08.101Z,28.53
2018-03-24T16:01:34.157Z,28.30
2018-03-24T16:04:03.858Z,26.23
2018-03-24T16:06:58.320Z,27.37
2018-03-24T16:09:24.357Z,34.07
2018-03-24T16:11:50.453Z,31.17
2018-03-24T16:14:16.517Z,28.90
2018-03-24T16:16:43.317Z,28.00
2018-03-24T16:19:09.373Z,28.43
2018-03-24T16:21:35.454Z,27.00
2018-03-24T16:24:01.526Z,25.50
2018-03-24T16:26:27.586Z,25.47
2018-03-24T16:28:53.640Z,25.70
2018-03-24T16:31:20.432Z,26.37
2018-03-24T16:33:46.506Z,26.57
2018-03-24T16:36:12.570Z,23.13
2018-03-24T16:38:39.367Z,25.00
2018-03-24T16:41:05.442Z,24.43
2018-03-24T16:43:31.518Z,22.60
2018-03-24T16:45:57.578Z,23.13
2018-03-24T16:48:23.647Z,23.63
2018-03-24T16:50:49.713Z,24.30
2018-03-24T16:53:16.530Z,22.40
2018-03-24T16:55:42.585Z,20.97
2018-03-24T16:58:08.665Z,22.40
2018-03-24T17:00:34.746Z,20.67
2018-03-24T17:03:00.801Z,23.17
2018-03-24T17:05:26.865Z,20.70
2018-03-24T17:07:52.920Z,21.90
2018-03-24T17:10:18.998Z,20.57
2018-03-24T17:12:45.072Z,22.03
2018-03-24T17:15:19.306Z,21.83
2018-03-24T17:18:17.524Z,21.43
2018-03-24T17:20:43.584Z,19.27
2018-03-24T17:23:09.653Z,21.27
2018-03-24T17:25:35.733Z,26.87
2018-03-24T17:28:01.832Z,20.60
2018-03-24T17:30:27.833Z,21.03
2018-03-24T17:32:53.906Z,22.03
2018-03-24T17:35:20.697Z,22.20
2018-03-24T17:37:46.765Z,18.73
2018-03-24T17:40:12.826Z,20.67
2018-03-24T17:43:08.716Z,21.33
2018-03-24T17:45:34.792Z,21.80
2018-03-24T17:48:00.868Z,20.77
2018-03-24T17:50:26.949Z,26.43
2018-03-24T17:52:53.018Z,23.00
2018-03-24T17:55:19.822Z,22.23
2018-03-24T17:57:45.888Z,23.00
2018-03-24T18:00:11.944Z,20.40
2018-03-24T18:02:37.990Z,22.93
2018-03-24T18:05:25.654Z,26.03
2018-03-24T18:07:51.706Z,24.27
2018-03-24T18:10:44.864Z,25.03
2018-03-24T18:13:10.920Z,25.40
2018-03-24T18:15:36.973Z,24.70
2018-03-24T18:18:03.005Z,24.90
2018-03-24T18:20:29.074Z,23.97
2018-03-24T18:22:55.117Z,24.53
2018-03-24T18:25:21.177Z,24.83
2018-03-24T18:27:47.221Z,26.33
2018-03-24T18:30:13.277Z,30.83
2018-03-24T18:32:39.316Z,29.87
2018-03-24T18:35:05.388Z,29.93
2018-03-24T18:37:31.424Z,29.73
2018-03-24T18:39:57.476Z,30.17
2018-03-24T18:42:24.408Z,29.77
2018-03-24T18:44:50.451Z,32.00
2018-03-24T18:47:16.501Z,29.47
2018-03-24T18:49:42.550Z,32.20
2018-03-24T18:52:08.603Z,32.83
2018-03-24T18:54:34.649Z,31.80
2018-03-24T18:57:00.705Z,37.67
2018-03-24T18:59:26.748Z,37.93
2018-03-24T19:01:52.802Z,36.80
2018-03-24T19:04:18.854Z,36.67
2018-03-24T19:06:45.677Z,34.73
2018-03-24T19:09:11.730Z,37.27
2018-03-24T19:11:37.765Z,39.57
2018-03-24T19:14:07.797Z,37.30
2018-03-24T19:16:33.846Z,39.43
2018-03-24T19:19:06.857Z,34.70
2018-03-24T19:21:33.633Z,34.93
2018-03-24T19:23:59.676Z,39.07
2018-03-24T19:26:25.717Z,36.03
2018-03-24T19:28:51.778Z,35.60
2018-03-24T19:31:24.032Z,34.93
2018-03-24T19:33:53.822Z,36.00
2018-03-24T19:36:20.618Z,33.53
2018-03-24T19:38:50.888Z,33.10
2018-03-24T19:41:27.729Z,37.80
2018-03-24T19:43:53.794Z,34.73
2018-03-24T19:46:26.386Z,33.87
2018-03-24T19:49:12.968Z,33.90
2018-03-24T19:52:04.877Z,33.70
2018-03-24T20:06:44.090Z,33.53
2018-03-24T20:09:10.873Z,35.07
2018-03-24T20:11:36.925Z,36.00
2018-03-24T20:14:02.981Z,34.40
2018-03-24T20:16:34.553Z,32.50
2018-03-24T20:19:00.593Z,36.93
2018-03-24T20:21:26.645Z,35.97
2018-03-24T20:23:53.429Z,34.67
2018-03-24T20:26:19.481Z,34.40
2018-03-24T20:28:45.533Z,36.63
2018-03-24T20:31:11.564Z,40.67
2018-03-24T20:33:37.616Z,35.83
2018-03-24T20:39:38.061Z,34.40
2018-03-24T20:42:04.118Z,38.67
2018-03-24T20:44:30.165Z,39.17
2018-03-24T20:46:56.210Z,38.00
2018-03-24T20:49:22.262Z,36.60
2018-03-24T20:51:48.310Z,39.10
2018-03-24T20:54:15.096Z,38.53
2018-03-24T20:56:41.141Z,33.53
2018-03-24T20:59:07.188Z,42.10
2018-03-24T21:01:33.224Z,40.10
2018-03-24T21:03:59.268Z,37.20
2018-03-24T21:06:29.075Z,40.67
2018-03-24T21:08:55.132Z,38.73
2018-03-24T21:11:21.178Z,38.70
2018-03-24T21:13:47.216Z,37.30
2018-03-24T21:16:19.841Z,36.37
2018-03-24T21:18:46.649Z,38.53
2018-03-24T21:21:12.699Z,39.20
2018-03-24T21:23:38.740Z,39.07
2018-03-24T21:26:04.789Z,39.60
2018-03-24T21:28:31.577Z,37.67
2018-03-24T21:30:57.625Z,41.90
2018-03-24T21:33:38.928Z,38.37
2018-03-24T21:36:04.977Z,42.37
2018-03-24T21:38:31.014Z,39.30
2018-03-24T21:40:57.075Z,39.83
2018-03-24T21:43:23.197Z,41.17
2018-03-24T21:45:49.240Z,37.43
2018-03-24T21:48:28.986Z,39.37
2018-03-24T21:50:55.058Z,39.83
2018-03-24T21:53:21.077Z,38.97
2018-03-24T21:55:53.145Z,45.00
2018-03-24T21:58:25.370Z,42.60
2018-03-24T22:01:16.786Z,42.90
2018-03-24T22:03:42.839Z,45.23
2018-03-24T22:06:09.625Z,43.57
2018-03-24T22:08:35.673Z,45.23
2018-03-24T22:11:01.709Z,43.93
2018-03-24T22:13:59.365Z,45.17
2018-03-24T22:16:25.409Z,46.70
2018-03-24T22:18:51.465Z,43.87
2018-03-24T22:21:17.530Z,42.20
2018-03-24T22:23:43.586Z,45.40
2018-03-24T22:26:10.373Z,40.27
2018-03-24T22:28:36.421Z,41.37
2018-03-24T22:31:02.460Z,40.10
2018-03-24T22:33:28.504Z,38.67
2018-03-24T22:35:54.549Z,35.47
2018-03-24T22:38:20.594Z,36.07
2018-03-24T22:40:46.636Z,36.30
2018-03-24T22:43:12.677Z,38.07
2018-03-24T22:45:38.737Z,38.47
2018-03-24T22:48:05.538Z,35.17
2018-03-24T22:50:31.622Z,37.90
2018-03-24T22:53:14.289Z,33.90
2018-03-24T22:55:40.346Z,37.20
2018-03-24T22:58:06.421Z,33.97
2018-03-24T23:00:33.233Z,35.87
2018-03-24T23:02:59.284Z,36.00
2018-03-24T23:05:25.359Z,33.27
2018-03-24T23:07:52.156Z,34.37
2018-03-24T23:10:18.201Z,35.60
2018-03-24T23:12:44.252Z,35.93
2018-03-24T23:15:10.305Z,37.33
2018-03-24T23:17:58.564Z,37.07
2018-03-24T23:20:24.630Z,37.33
2018-03-24T23:22:50.690Z,36.23
2018-03-24T23:25:16.758Z,36.97
2018-03-24T23:27:42.826Z,36.87
2018-03-24T23:30:08.878Z,36.37
2018-03-24T23:32:34.938Z,36.77
2018-03-24T23:35:00.996Z,35.07
2018-03-24T23:37:27.040Z,33.80
2018-03-24T23:39:53.122Z,34.67
2018-03-24T23:42:19.173Z,35.67
2018-03-24T23:44:45.241Z,35.07
2018-03-24T23:47:11.301Z,35.07
2018-03-24T23:49:37.381Z,36.23
2018-03-24T23:52:03.445Z,33.97
2018-03-24T23:54:47.396Z,36.77
2018-03-24T23:57:13.468Z,40.40
2018-03-24T23:59:39.540Z,40.57
